x

8419317 - Wells, Me (welm1) Weather Station

1:36 - Sat 28th Feb 2015 All times are EST. -5 hours from GMT.

  • Wind
  • Luft Temp 12°f
  • Sea Pressure 1033.8mb
  • 8419317 - Wells, Me
  • 8419317 - Wells, Me

More Historic Weather Station data

Upgrade to MSW Pro to gain access to the past 30 days of data for over 8000 Wavebouys and Weather Stations around the globe.

Join Pro

Comparision Forecast

View Surf forecast
   
Sa 02/28 1:36  -  6 mph 1033.8mb 12f
1:30 3 8 mph - -
1:12 5 8 mph 1033.3mb 13f
1:06 6 8 mph 1033.2mb 13f
12:48 6 8 mph 1033mb 14f
12:42 6 9 mph 1032.9mb 14f
12:36 5 9 mph 1032.8mb 15f
12:30 3 5 mph 1032.7mb 15f
12:24 2 5 mph 1032.7mb 14f
12:18 3 6 mph 1032.7mb 14f
12:12 3 6 mph 1032.5mb 14f
12:06 5 7 mph 1032.4mb 14f
12:00 6 9 mph 1032.4mb -
Fr 02/27 11:54 7 9 mph 1032.3mb 15f
11:48 6 9 mph 1032.3mb 15f
11:42 6 9 mph 1032.3mb 16f
11:36 7 9 mph 1032.2mb 16f
11:30 6 10 mph 1032.1mb 15f
11:24 6 9 mph 1032.1mb 15f
11:18 6 8 mph 1032mb 15f
11:12 5 9 mph 1032mb 15f
10:54 2 3 mph 1031.9mb 13f
10:48 2 3 mph 1031.9mb 13f
10:42 3 5 mph 1031.9mb 11f
10:36 2 3 mph 1031.8mb 12f
10:30 2 3 mph 1031.7mb 12f
10:24 1 2 mph 1031.6mb 12f
10:18 2 3 mph 1031.6mb 13f
10:12 2
mph
1031.6mb 13f
10:06 1 2 mph 1031.5mb 14f
10:00 2
mph
1031.5mb 14f
9:54 2 3 mph 1031.4mb 15f
9:48 2 3 mph - -
9:42 3 5 mph 1031.3mb 16f
9:36 3 5 mph 1031.2mb 17f
9:30 2 5 mph 1031.1mb 17f
9:24 2 6 mph 1031mb 17f
9:18 3 6 mph 1030.9mb 17f
9:12 6 7 mph 1030.8mb 18f
9:06 6 8 mph 1030.7mb 18f
9:00 6 9 mph 1030.6mb 18f
8:42 8 13 mph 1030.4mb 18f
8:36 8 10 mph 1030.3mb 18f
8:30 7 9 mph 1030.2mb 19f
8:24 6 10 mph 1030.2mb 19f
8:18 6 8 mph 1030.1mb 19f
8:12 5 9 mph 1030.1mb 19f
8:06 7 8 mph 1030mb 19f
8:00 6 9 mph 1029.9mb 20f
7:54 6 10 mph 1029.8mb 20f
7:48 7 9 mph 1029.7mb 20f
7:42 6 9 mph - -
7:36 6 9 mph 1029.6mb 20f
7:30 5 7 mph 1029.6mb 20f
7:24 6 8 mph 1029.5mb 20f
7:18 6 9 mph 1029.5mb 21f
7:12 7 8 mph 1029.4mb 21f
7:06 6 8 mph 1029.3mb 20f
7:00 6 8 mph 1029.3mb -
6:54 5 8 mph 1029.2mb 21f
6:48 5 7 mph 1029.2mb 21f
6:42 5 7 mph 1029.1mb 21f
6:36 5 7 mph 1029mb 22f
6:30 5 6 mph 1028.9mb -
6:24 5 7 mph 1028.7mb 22f
6:18 6 8 mph 1028.6mb 22f
6:12 6 10 mph 1028.4mb 22f
6:06 7 11 mph 1028.2mb 23f
6:00 8 13 mph 1028mb 23f
5:54 8 11 mph 1027.8mb 23f
5:48 5 10 mph 1027.8mb 23f
5:42 5 8 mph 1027.7mb 24f
5:36 6 10 mph 1027.5mb 24f
5:30 7 11 mph 1027.4mb 24f
5:24 8 10 mph 1027.3mb 24f
5:18 7 9 mph 1027.2mb 25f
5:12 5 8 mph 1027.2mb 25f
5:06 6 8 mph 1027mb 25f
5:00 2 3 mph 1026.9mb 25f
4:54 1 3 mph 1026.8mb 26f
4:48 3 8 mph 1026.8mb 26f
4:42 6 9 mph 1026.7mb 26f
4:24 5 9 mph 1026.6mb 26f
4:18 7 9 mph 1026.6mb 26f
4:12 6 8 mph 1026.6mb 26f
4:06 6 8 mph 1026.5mb 26f
4:00 7 11 mph 1026.5mb 26f
3:54 3 9 mph 1026.5mb 26f
3:48 9 13 mph 1026.4mb 25f
3:42 9 11 mph 1026.4mb 25f
3:36 9 13 mph 1026.3mb 25f
3:30 9 13 mph 1026.2mb 25f
3:24 9 13 mph 1026.2mb 25f
3:18 9 14 mph 1026.1mb 25f
3:12 9 13 mph 1026.1mb 24f
3:06 10 13 mph 1026.1mb 24f
3:00 7 10 mph 1026mb 25f
2:54 9 13 mph 1026mb 24f
2:48 10 14 mph 1025.9mb 24f
2:42 10 14 mph 1025.9mb 24f
2:36 11 14 mph 1025.8mb 23f
2:30 10 14 mph 1025.8mb 24f
2:24 10 11 mph 1025.8mb 24f
2:18 9 11 mph 1025.8mb 24f
2:12 9 13 mph 1025.8mb 23f
2:06 10 13 mph 1025.8mb 23f
2:00 10 11 mph 1025.8mb 23f
1:54 9 13 mph 1025.8mb 22f
1:48 8 10 mph 1025.8mb 23f
1:42 9 11 mph 1025.8mb 23f
1:36 9 10 mph 1025.8mb 22f
1:30 9 13 mph 1025.7mb 22f
1:24 10 13 mph 1025.8mb 22f
1:18 9 10 mph 1025.9mb 22f
1:12 10 13 mph 1025.9mb 22f
1:06 9 11 mph 1025.9mb 22f
1:00 10 11 mph 1026.1mb 21f
12:54 8 10 mph 1026.1mb 22f
12:48 9 11 mph 1026mb 21f
12:42 7 8 mph 1026.1mb 22f
12:36 7 9 mph 1026.1mb 21f
12:30 7 10 mph 1026.1mb 21f
12:24 7 9 mph 1026.1mb 21f
12:18 7 10 mph 1026.2mb 21f
12:12 9 10 mph 1026.3mb 20f
12:06 8 10 mph 1026.3mb 20f
12:00 8 10 mph 1026.3mb 20f
11:54 8 10 mph 1026.3mb 20f
11:48 6 8 mph 1026.3mb 20f
11:42 6 7 mph 1026.3mb 20f
11:36 5 7 mph 1026.3mb 20f
11:30 5 6 mph 1026.4mb 20f
11:24 6 8 mph 1026.5mb 20f
11:18 6
mph
1026.5mb 20f
11:12 5 6 mph 1026.5mb 19f
11:06 5 7 mph 1026.6mb 19f
11:00 3 5 mph 1026.6mb 19f
10:54 6
mph
1026.7mb 19f
10:48 5 7 mph 1026.7mb 17f
10:42 6 7 mph 1026.7mb 19f
10:36 5 6 mph 1026.6mb 18f
10:30 5 6 mph 1026.6mb 18f
10:24 5 6 mph 1026.5mb 18f
10:18 3 6 mph 1026.6mb 18f
10:12 3 5 mph 1026.6mb 18f
10:06 2 5 mph 1026.6mb 18f
10:00 3 5 mph 1026.6mb 18f
9:54  -  1 mph 1026.5mb 18f
9:48  -  1 mph 1026.6mb 18f
9:42  -  2 mph 1026.6mb 17f
9:24 5 7 mph 1026.6mb 15f
9:18 5 7 mph 1026.5mb 15f
9:12 5 7 mph 1026.4mb 15f
9:06 7 8 mph 1026.4mb 14f
9:00 6 8 mph 1026.4mb 14f
8:54 3 7 mph 1026.4mb 14f
8:48 7 8 mph 1026.4mb 14f
8:42 6 7 mph 1026.4mb 14f
8:36 7 9 mph 1026.3mb 14f
8:30 7 9 mph 1026.2mb 14f
8:24 8 10 mph 1026.1mb 13f
8:18 7 9 mph 1026mb 13f
8:12 7 9 mph 1025.9mb 13f
8:06 7 9 mph 1025.9mb 13f
8:00 8 9 mph 1025.8mb 13f
7:54 7 8 mph 1025.7mb 13f
7:48 9 10 mph 1025.6mb 12f
7:42 8 10 mph 1025.5mb 12f
7:36 8 10 mph 1025.4mb 12f
7:30 8 9 mph 1025.3mb 12f
7:24 8 10 mph 1025.3mb 11f
7:18 8 10 mph 1025.2mb 11f
7:12 8 9 mph 1025.1mb 11f
7:06 7 8 mph 1025.1mb 12f
7:00 8 9 mph 1024.9mb -
6:54 6 8 mph 1024.8mb 11f
6:48 6 7 mph 1024.7mb 11f
6:42 6 8 mph 1024.6mb 11f
6:36 5 7 mph 1024.5mb 11f
6:30 5 6 mph 1024.5mb 11f
6:24 6 7 mph 1024.5mb 11f
6:18 5 6 mph 1024.3mb 11f
6:12 5 6 mph 1024.2mb 11f
6:06 5 6 mph 1024.1mb 11f
6:00 5
mph
1023.9mb 10f
5:54 5
mph
1023.7mb 11f
5:48 5 6 mph 1023.6mb 11f
5:42 6
mph
1023.5mb 11f
5:36 6
mph
1023.6mb 12f
5:30 5 6 mph 1023.5mb 12f
5:24 5 6 mph 1023.3mb 11f
5:18 5
mph
1023.1mb 11f
5:12 3 5 mph 1023mb 11f
5:06 5
mph
1023mb 11f
5:00 3 5 mph 1022.8mb 11f
4:54 3 5 mph 1022.7mb 11f
4:48 5 6 mph 1022.5mb 11f
4:42 3 5 mph 1022.4mb 11f
4:36 5 6 mph 1022.3mb 11f
4:30 6 7 mph 1022.3mb 11f
4:24 7
mph
1022.1mb 11f
4:18 5 6 mph 1022.1mb 11f
4:12 6
mph
1021.9mb 11f
4:06 6
mph
1021.8mb 11f
4:00 6 7 mph 1021.7mb 11f
3:54 6 7 mph 1021.7mb 11f
3:48 6 7 mph 1021.6mb 12f
3:42 5 6 mph 1021.6mb 12f
3:36 3 5 mph 1021.4mb 13f
3:30 3 5 mph 1021.3mb 13f
3:24 3 6 mph 1021.1mb 13f
3:18 5 6 mph 1021mb -
3:12 5 6 mph 1020.9mb 14f
3:06 5 6 mph 1020.8mb 15f
3:00 3 5 mph 1020.7mb 15f
2:54 5 6 mph 1020.7mb 15f
2:48 6
mph
1020.7mb 15f
2:42 5 6 mph 1020.6mb 15f
2:36 5 6 mph 1020.6mb 15f
2:30 6 7 mph - -
2:24 6 7 mph 1020.3mb 15f
2:18 7 8 mph 1020.2mb 16f
2:12 6 7 mph 1020mb 16f
2:06 6 7 mph 1020mb 16f
2:00 6 7 mph 1020mb 16f
1:54 6 8 mph 1020mb 16f
1:48 7 8 mph 1020.1mb 16f
1:42 6 8 mph 1020.2mb 17f
1:18 6 7 mph 1020.1mb 17f
12:54 3 5 mph 1019.5mb 17f
12:48 5 6 mph - -
12:42 5
mph
1019.5mb 17f
12:36 5
mph
1019.3mb 17f
12:30 3 5 mph 1019.1mb 17f
12:24 3 5 mph 1019.1mb 17f
12:18 3 5 mph 1019.4mb 17f
12:12 5 6 mph 1019.4mb 17f
12:06 5 6 mph 1019.2mb 17f
12:00 5 6 mph 1019.1mb 17f
Do 02/26 11:54 3 5 mph 1018.9mb 17f
11:48 3 5 mph 1019mb -
11:42 3
mph
1018.9mb 17f
11:36 3
mph
1019mb 17f
11:30 2
mph
1018.9mb 17f
11:24 2 3 mph 1018.9mb 17f
11:18 3 5 mph 1019.1mb 17f
11:12 2 3 mph 1019.1mb 17f
11:06 3 5 mph 1018.9mb 17f
11:00 3 5 mph 1018.9mb 17f
10:54 2 3 mph 1018.9mb 17f
10:48 3 5 mph 1018.9mb 17f
10:42 3 5 mph 1018.8mb 17f
10:36 3 5 mph 1018.9mb 17f
10:30 3 5 mph 1018.9mb 17f
10:24 3 5 mph 1018.8mb 17f
10:18 3 5 mph 1018.7mb 17f
10:12 3 5 mph 1018.7mb 17f
10:06 5
mph
1018.6mb 17f
10:00 5
mph
1018.6mb 17f
9:54 3
mph
1018.4mb 17f
9:48 2 3 mph 1018.3mb 18f
9:42 2
mph
1018.4mb 18f
9:36 2 3 mph 1018.2mb 18f
9:30 3
mph
1018.2mb 17f
9:24 2 3 mph 1018mb 18f
9:18 2 3 mph 1017.9mb 17f
9:12 2 3 mph 1017.9mb 17f
9:06 2 3 mph 1017.6mb 18f
9:00 2 3 mph 1017.5mb 18f
8:54 3
mph
1017.5mb 18f
8:48 3
mph
1017.4mb 18f
8:42 3
mph
1017.3mb 18f
8:36 3 5 mph 1017.3mb 18f
8:30 2 3 mph 1017.2mb 18f
8:24 2 3 mph 1017.1mb 19f
8:18 2 3 mph 1017.1mb 19f
8:12 3
mph
1017.1mb 19f
8:06 3 5 mph 1017mb 19f
8:00 3 5 mph 1016.8mb 19f
7:54 5 6 mph 1016.8mb 19f
7:48 5 6 mph 1016.7mb 20f
7:42 3 5 mph 1016.8mb 20f
7:36 3 5 mph 1016.7mb 20f
7:30 5 6 mph 1016.6mb 20f
7:24 5 6 mph 1016.6mb 20f
7:18 3 5 mph 1016.5mb 20f
7:12 3 5 mph 1016.4mb 20f
7:06 5 6 mph 1016.3mb 20f
7:00 5 6 mph 1016.2mb 20f
6:54 5 6 mph 1016.2mb 20f
6:48 5
mph
1016mb 20f
6:42 3 5 mph 1016.1mb 20f
6:36 5
mph
1016.1mb 20f
6:30 3 5 mph 1016mb 20f
6:24 3 5 mph 1016mb 20f
6:18 3 6 mph 1015.9mb 20f
6:12 5 6 mph 1015.9mb 20f
6:06 5 6 mph 1015.8mb 20f
6:00 6 7 mph 1015.7mb 20f
5:54 5 6 mph 1015.8mb 20f
5:48 5 7 mph 1015.8mb 21f
5:42 6 7 mph 1015.8mb 20f
5:36 6 7 mph 1015.7mb 20f
5:30 6 7 mph 1015.7mb 21f
5:24 5 6 mph 1015.7mb 20f
5:18 6 7 mph 1015.6mb 20f
5:12 6 8 mph 1015.5mb 21f
5:06 6 7 mph 1015.6mb 20f
5:00 7 9 mph 1015.5mb 21f
4:54 6 8 mph 1015.4mb 21f
4:48 6 9 mph 1015.4mb 21f
4:42 8 9 mph 1015.3mb 21f
4:36 6 8 mph 1015.4mb 21f
4:30 8 10 mph 1015.3mb 21f
4:24 7 9 mph 1015.1mb 21f
4:18 6 8 mph 1015.1mb 21f
4:12 7 11 mph 1015mb 21f
4:06 8 9 mph 1014.8mb 21f
4:00 7 8 mph 1014.8mb 21f
3:54 7 10 mph 1014.9mb 21f
3:48 7 9 mph 1014.9mb 21f
3:42 7 9 mph 1015mb 21f
3:36 7 9 mph 1015mb 21f
3:30 7 10 mph 1015mb 20f
3:24 6 8 mph 1015mb 21f
3:18 6 10 mph 1015mb 21f
3:12 8 10 mph 1014.9mb 21f
3:06 8 10 mph 1014.9mb 21f
3:00 8 10 mph 1014.8mb 20f
2:54 5 7 mph 1014.8mb 21f
2:48 6 9 mph 1014.7mb 20f
2:42 6 8 mph 1014.8mb 21f
2:36 6 7 mph 1014.8mb 21f
2:30 6 8 mph 1014.9mb 21f
2:24 5 6 mph 1015mb 21f
2:18 2 7 mph 1015mb 20f
2:12 7 9 mph 1015.1mb 20f
2:06 6 8 mph 1015.1mb 21f
2:00 5 8 mph 1015.2mb 21f
1:54 3 10 mph 1015.3mb 20f
1:48 3 6 mph 1015.3mb 20f
1:42 5 9 mph 1015.3mb 20f
1:36 5 8 mph 1015.6mb 19f
1:30 5 7 mph 1015.8mb 19f
1:24 6 8 mph 1015.9mb 19f
1:18 5 7 mph 1016.1mb 19f
1:12 5 7 mph 1016.2mb 19f
1:06 3 5 mph 1016.4mb 19f
1:00 3 7 mph 1016.4mb 19f
12:54 2 5 mph 1016.8mb 19f
12:48 5 6 mph 1016.8mb 19f
12:42 2 6 mph 1016.9mb 19f
12:36 5 7 mph 1016.8mb 19f
12:30 3 6 mph 1016.9mb 19f
12:24 2 7 mph 1016.9mb 19f
12:18 5 8 mph 1016.9mb 18f
12:12 3 6 mph 1016.9mb 18f
12:06 5 7 mph 1017mb 18f
12:00 3 7 mph 1017.2mb 18f
11:54 6 7 mph 1017.2mb 18f
11:48 7 8 mph 1017.3mb 18f
11:42 3 9 mph 1017.5mb 18f
11:36 7 10 mph 1017.5mb 17f
11:30 5 7 mph 1017.8mb 17f
11:24 7 8 mph 1017.8mb 17f
11:18 6 7 mph 1017.8mb 17f
11:12 5 7 mph 1018.1mb 17f
11:06 7 8 mph 1018.2mb 17f
11:00 3 7 mph 1018.4mb 17f
10:54 6 8 mph 1018.3mb 17f
10:48 5 8 mph 1018.5mb 17f
10:42 6 8 mph 1018.4mb 17f
10:36 7 9 mph 1018.5mb 17f
10:30 5 7 mph 1018.5mb 17f
10:24 6 9 mph 1018.4mb 17f
10:18 7 8 mph 1018.4mb 17f
10:12 3 5 mph 1018.6mb 17f
10:06 3 8 mph 1018.6mb 16f
10:00 6 7 mph 1018.6mb 16f
9:54 5 7 mph 1018.5mb 16f
9:48 6 8 mph - -
9:42 7 8 mph 1018.7mb 16f
9:36 6 7 mph 1018.6mb 16f
9:30 6 8 mph 1018.7mb 16f
9:24 6 9 mph 1018.8mb 16f
9:18 7 10 mph 1018.8mb 16f
9:12 8 10 mph 1018.9mb 16f
9:06 7 10 mph 1018.9mb 15f
9:00 6 11 mph 1018.9mb 15f
8:54 6 9 mph 1019mb 16f
8:48 8 10 mph 1018.9mb 15f
8:42 9 11 mph 1018.9mb 15f
8:36 8 9 mph 1019.1mb 15f
8:30 6 8 mph 1019.1mb 15f
8:24 7 10 mph 1019.2mb 15f
8:18 8 10 mph 1019.1mb 15f
8:12 7 10 mph 1019.1mb 15f
8:06 9 10 mph 1018.9mb 15f
8:00 8 10 mph 1019.2mb 15f
7:54 7 9 mph 1019mb 15f
7:48 9 11 mph 1018.9mb 15f
7:42 6 8 mph 1018.9mb 15f
7:36 6 10 mph 1018.6mb 15f
7:30 7 9 mph 1018.6mb 15f
7:24 6 7 mph 1018.7mb 15f
7:18 6 8 mph 1018.4mb 15f
7:12 7 9 mph 1018.2mb 15f
7:06 7 10 mph 1017.9mb 15f
7:00 8 10 mph 1018mb 15f
6:54 8 13 mph 1017.7mb 15f
6:48 8 10 mph 1017.6mb 15f
6:42 6 8 mph 1017.7mb 15f
6:36 5 7 mph 1017.7mb 15f
6:30 5 7 mph 1017.6mb 16f
6:24 6 7 mph 1017.6mb 16f
6:18 5 6 mph 1017.5mb 16f
6:12 6 7 mph 1017.4mb 16f
6:06 5 6 mph 1017.3mb 16f
6:00 5 6 mph 1017.3mb 16f
5:54 5 6 mph 1017.5mb 16f
5:48 5
mph
1017.5mb 16f
5:42 3 6 mph 1017.5mb 16f
5:36 5 6 mph 1017.4mb 16f
5:30 3 5 mph 1017.6mb 16f
5:24 5
mph
1017.6mb 16f
5:18 2 3 mph 1017.6mb 17f
5:12 1 2 mph 1017.6mb 17f
5:06 1 3 mph 1017.5mb 16f
5:00 3 6 mph 1017.2mb 17f
4:54 3 5 mph 1017.1mb 17f
4:48 1 2 mph 1016.9mb 17f
4:42 1 3 mph 1017mb 17f
4:36 3 6 mph 1016.7mb 17f
4:30 3 5 mph 1017mb 17f
4:24 5 7 mph 1017mb 17f
4:18 5 8 mph 1017mb 17f
4:12 6 8 mph 1016.9mb 17f
4:06 5 6 mph 1016.6mb 17f
4:00 5 8 mph 1016.5mb 17f
3:54 7 9 mph 1016.4mb 17f
3:48 7 9 mph 1016.5mb 18f
3:42 7 10 mph 1016.3mb 18f
3:36 9 14 mph 1016mb 18f
3:30 13 15 mph 1015.8mb 18f
3:24 9 15 mph 1015.9mb 18f
3:18 10 20 mph - -
3:12 15 20 mph 1015.5mb 18f
3:06 11 15 mph 1015.5mb 18f
3:00 13 18 mph 1015.6mb 18f
2:54 15 20 mph 1015.4mb 19f
2:48 13 17 mph 1015.7mb 19f
2:42 15 20 mph 1015.7mb 19f
2:36 14 17 mph 1015.6mb 19f
2:30 11 16 mph 1015.8mb 19f
2:24 9 17 mph 1015.7mb 19f
2:18 8 15 mph 1015.5mb 19f
2:12 11 21 mph 1015.5mb 19f
2:06 10 15 mph 1015.6mb 19f
2:00 11 17 mph 1015.6mb 19f
1:54 10 17 mph 1015.8mb 19f
1:48 10 17 mph 1016mb 19f
1:42 11 16 mph 1015.9mb 20f
1:18 11 15 mph 1015.3mb 20f
1:12 11 15 mph 1015.3mb 21f
12:54 9 14 mph 1014.8mb 21f
12:48 10 15 mph 1014.7mb 21f
12:42 9 14 mph 1014.6mb 22f
12:36 8 14 mph 1014.4mb 22f
12:30 14 18 mph 1014.2mb 22f
12:24 8 13 mph 1014.5mb 22f
12:18 6 7 mph - -
12:12 5 8 mph 1014.5mb 23f
12:06 6 10 mph 1014.3mb 23f
12:00 8 15 mph 1014.2mb 23f
Mi 02/25 11:54 9 14 mph 1014.1mb 23f
11:48 8 14 mph 1014.1mb 23f
11:42 9 15 mph 1014mb 24f
11:36 10 15 mph 1014mb 24f
11:30 9 14 mph 1014mb 24f
11:24 10 15 mph 1013.9mb 24f
11:18 9 15 mph 1013.9mb -
11:12 10 15 mph 1013.9mb 24f
11:06 10 15 mph 1013.8mb 24f
10:48 5 7 mph 1013.8mb 24f
10:42 5 7 mph 1013.8mb 24f
10:36 5 10 mph 1013.7mb 24f
10:30 7 10 mph 1013.5mb 25f
10:24 7 14 mph 1013.4mb 25f
10:18 8 11 mph 1013.3mb 25f
10:12 6 9 mph - -
10:06 5 8 mph 1013.3mb 25f
10:00 6 8 mph 1013.2mb 25f
9:54 7 13 mph 1013.1mb 25f
9:48 8 13 mph 1012.8mb 26f
9:42 10 17 mph 1012.6mb 26f
9:36 10 15 mph 1012.4mb 26f
9:30 9 15 mph 1012.3mb 26f
9:24 10 14 mph 1012.1mb 26f
9:18 9 13 mph 1012mb 26f
9:12 9 14 mph 1011.9mb 27f
9:06 7 10 mph 1011.8mb 26f
9:00 7 8 mph 1011.6mb 26f
8:54 5 6 mph 1011.5mb 27f
8:48 3 5 mph 1011.3mb 27f
8:42 3 6 mph 1011.2mb 27f
8:36 3 6 mph 1011mb 27f
8:30 3 7 mph 1011mb 27f
8:24 6 7 mph 1010.7mb 27f
8:18 5 6 mph 1010.3mb 27f
8:12 5 7 mph 1010.3mb 27f
8:06 6 8 mph 1010.4mb 28f
8:00 6 11 mph 1010.1mb 28f
7:54 6 10 mph 1010mb 28f
7:48 6 9 mph 1009.7mb 28f
7:42 6 10 mph 1009.6mb 28f
7:36 6 9 mph 1009.5mb 28f
7:30 5 6 mph 1009.4mb 28f
7:24 3 5 mph 1009.2mb 28f
7:18 3 6 mph 1009.1mb 28f
7:12 2 3 mph 1009.1mb 28f
7:06 2 3 mph 1009mb 29f
7:00 2 3 mph 1008.9mb 29f
6:54 3 5 mph 1008.9mb 29f
6:48 3 6 mph 1008.7mb 29f
6:42 5 6 mph 1008.7mb 29f
6:36 6 8 mph 1008.7mb 29f
6:30 6 10 mph 1008.6mb 30f
6:24 7 10 mph 1008.5mb 30f
6:18 9 14 mph 1008.3mb 30f
6:12 11 16 mph 1008mb 31f
6:06 13 16 mph 1007.9mb 31f
6:00 10 16 mph 1007.7mb 31f
5:54 10 16 mph 1007.6mb 31f
5:48 15 22 mph 1007.5mb 31f
5:42 9 20 mph 1007.4mb 31f
5:36 13 20 mph 1007.2mb 31f
5:30 11 20 mph 1007.1mb 31f
5:24 13 21 mph 1007mb 31f
5:18 11 20 mph 1006.8mb 32f
5:12 13 17 mph 1006.7mb 32f
5:06 14 21 mph 1006.6mb 32f
5:00 11 17 mph 1006.4mb 33f
4:54 10 18 mph 1006.4mb 33f
4:48 13 22 mph 1006.2mb 33f
4:42 14 21 mph 1006mb 33f
4:36 11 16 mph 1005.9mb 33f
4:30 8 11 mph 1005.9mb 34f
4:24 9 15 mph 1005.8mb 33f
4:18 11 14 mph 1005.7mb 33f
4:12 10 18 mph 1005.6mb 33f
4:06 10 16 mph 1005.5mb 33f
4:00 13 18 mph 1005.3mb 33f
3:54 14 21 mph 1005.2mb 33f
3:48 10 14 mph - -
3:42 11 18 mph 1005.1mb 33f
3:36 9 16 mph 1005.1mb 33f
3:30 10 18 mph 1005mb 33f
3:24 13 22 mph 1004.8mb 33f
3:18 13 17 mph 1004.8mb 33f
3:12 10 23 mph 1004.7mb 33f
3:06 14 20 mph 1004.6mb 33f
3:00 11 20 mph 1004.5mb 32f
2:54 11 18 mph 1004.4mb 33f
2:48 11 20 mph 1004.4mb 33f
2:42 13 21 mph 1004.3mb 32f
2:36 11 20 mph 1004.2mb 32f
2:30 15 22 mph 1004.1mb 33f
2:24 9 14 mph 1003.9mb 33f
2:18 11 22 mph 1003.8mb 33f
2:12 15 22 mph 1003.7mb 32f
2:06 14 20 mph 1003.7mb 32f
2:00 15 20 mph 1003.6mb 32f
1:54 11 17 mph 1003.5mb 32f
1:48 13 18 mph 1003.5mb 32f
1:42 10 18 mph 1003.5mb 32f
1:36 10 18 mph 1003.4mb 32f
1:30 10 18 mph 1003.3mb -
1:24 13 18 mph 1003.2mb 31f
1:18 9 23 mph 1003.3mb 31f
1:12 17 25 mph 1003.2mb 31f
1:06 11 21 mph 1003.2mb 31f
1:00 16 25 mph 1003.1mb 31f
12:54 11 20 mph 1003.1mb 31f
12:48 13 22 mph 1003.2mb 30f
12:42 13 23 mph 1003.2mb 30f
12:36 14 22 mph 1003.3mb 30f
12:30 14 22 mph 1003.3mb 30f
12:24 16 21 mph 1003.4mb 30f
12:18 15 21 mph 1003.5mb 29f
12:12 14 23 mph 1003.5mb 29f
12:06 13 20 mph 1003.5mb 29f
12:00 10 18 mph 1003.6mb 30f
11:54 11 17 mph 1003.6mb 29f
11:48 9 18 mph 1003.8mb -
11:42 10 15 mph 1004mb 29f
11:36 9 16 mph 1004mb 29f
11:30 8 16 mph 1004.1mb 29f
11:24 10 21 mph 1004.2mb 28f
11:18 11 16 mph 1004.3mb 28f
11:12 11 17 mph 1004.3mb 28f
11:06 14 20 mph 1004.4mb 28f
11:00 13 18 mph 1004.5mb 27f
10:54 11 15 mph 1004.5mb 27f
10:48 10 16 mph 1004.5mb 27f
10:42 9 14 mph 1004.6mb 27f
10:36 8 11 mph 1004.6mb 27f
10:30 8 14 mph 1004.7mb 27f
10:24 7 14 mph 1004.6mb 26f
10:18 9 14 mph 1004.6mb 26f
10:12 11 15 mph 1004.7mb 26f
10:06 9 14 mph 1004.7mb 25f
10:00 5 9 mph 1004.8mb 25f
9:54 6 8 mph 1004.8mb 24f
9:48 5 9 mph 1004.9mb 23f
9:42 7 11 mph 1005mb 22f
9:36 6 8 mph 1005mb 21f
9:30 3 10 mph 1005.2mb 21f
9:24 5 9 mph 1005.3mb 20f
9:18 8 10 mph 1005.3mb 19f
9:12 7 11 mph 1005.4mb 19f
9:06 5 8 mph 1005.5mb 18f
9:00 7 10 mph 1005.6mb 18f
8:54 6 9 mph 1005.6mb 18f
8:48 9 13 mph 1005.6mb -
8:42 6 9 mph 1005.6mb 17f
8:36 7 9 mph 1005.5mb 17f
8:30 6 7 mph 1005.5mb 17f
8:24 3 6 mph 1005.5mb 16f
8:18 3 6 mph 1005.5mb 16f
8:12 6 8 mph 1005.4mb 16f
8:06 6 7 mph 1005.5mb 16f
8:00 6 7 mph 1005.6mb 15f
7:54 5 6 mph 1005.6mb 15f
7:48 5
mph
1005.5mb 15f
7:42 5 6 mph 1005.4mb 15f
7:36 3 8 mph 1005.4mb 15f
7:30 7 8 mph 1005.3mb 15f
7:24 6
mph
1005.3mb 15f
7:18 6 7 mph 1005.2mb 15f
7:12 5 6 mph 1005.2mb 15f
7:06 5 6 mph 1005.1mb 15f
7:00 6 7 mph 1005.2mb 15f
6:54 5 6 mph 1005.1mb 15f
6:48 5 7 mph 1005.2mb 15f
6:42 6 7 mph 1005.2mb 15f
6:36 5 7 mph 1005.1mb 15f
6:30 6 7 mph 1005.2mb 15f
6:24 5 6 mph 1005.1mb 15f
6:18 5 6 mph 1005.2mb 15f
6:12 5 6 mph 1005.3mb 15f
6:06 6
mph
1005.3mb 15f
6:00 5 6 mph 1005.5mb 15f
5:54 3 6 mph 1005.6mb 15f
5:48 5
mph
1005.7mb 16f
5:42 3 6 mph 1005.8mb 16f
5:36 5 6 mph 1005.7mb 16f
5:30 5 6 mph 1005.7mb 16f
5:24 6
mph
1005.9mb 16f
5:18 5 6 mph 1005.9mb 17f
5:12 5 7 mph 1005.9mb 16f
5:06 6 7 mph 1006mb 17f
5:00 6 7 mph 1006mb 16f
4:54 6 8 mph 1006.1mb 16f
4:48 6 8 mph 1006.1mb 16f
4:42 7 8 mph 1006.2mb 16f
4:36 6 9 mph 1006.3mb 16f
4:30 8 10 mph 1006.4mb 16f
4:24 8 9 mph 1006.5mb 16f
4:18 8 10 mph 1006.6mb 16f
4:12 8 10 mph 1006.7mb 16f
4:06 7 9 mph 1006.9mb 16f
4:00 7 9 mph 1007mb 15f
3:54 7 10 mph 1007.1mb 16f
3:48 8 10 mph 1007.2mb 15f
3:42 8 9 mph 1007.2mb 16f
3:36 6 7 mph 1007.4mb 16f
3:30 6 7 mph 1007.5mb 16f
3:24 6 7 mph 1007.6mb 16f
3:18 6 7 mph 1007.6mb 16f
3:12 5 6 mph 1007.7mb 16f
3:06 5 6 mph 1007.7mb 16f
3:00 6 7 mph 1007.9mb 16f
2:54 6 7 mph 1008.1mb 16f
2:48 6 7 mph 1008.1mb 16f
2:42 3 5 mph 1008.3mb 16f
2:36 3 5 mph 1008.5mb 16f
2:30 3 6 mph 1008.7mb 16f
2:24 5 7 mph 1008.7mb 16f
2:18 6 8 mph 1008.9mb 16f
2:12 5 7 mph 1009.1mb 16f
2:06 6 7 mph 1009.2mb 16f
2:00 6 8 mph 1009.3mb 16f
1:54 6 7 mph 1009.5mb 16f
1:48 5 7 mph 1009.7mb 16f
1:42 6 8 mph 1009.8mb 16f
1:36 6 8 mph 1009.9mb 16f
1:30 2 5 mph 1009.9mb 16f
1:24 3 6 mph 1010mb 16f
1:18 2 6 mph 1010.1mb 16f
1:12 2 5 mph 1010.1mb 16f
1:06 3 6 mph 1010.2mb 16f
1:00 5 7 mph 1010.3mb 16f
12:54 5 7 mph 1010.5mb 17f
12:48 3 6 mph 1010.7mb 16f
12:42 5 6 mph 1010.7mb 16f
12:36 5 7 mph 1010.9mb 17f
12:30 5 6 mph 1010.9mb 16f
12:24 3 5 mph 1011mb 16f
12:18 5 7 mph 1011.1mb 16f
12:12 3 5 mph 1011.3mb 17f
12:06 5 6 mph 1011.3mb 17f
12:00 3 5 mph 1011.4mb 16f
Di 02/24 11:54 3 6 mph 1011.4mb 17f
11:48 3 5 mph 1011.4mb 16f
11:42 2 6 mph 1011.4mb 17f
11:36 5 8 mph 1011.7mb 17f
11:30 5 8 mph 1011.8mb 17f
11:24 5 9 mph 1012mb 17f
11:18 6 7 mph 1012.2mb 17f
11:12 5 8 mph 1012.5mb 17f
11:06 5 7 mph 1012.5mb 17f
11:00 6 11 mph 1012.7mb 17f
10:54 7 9 mph 1012.6mb 17f
10:48 8 13 mph 1012.8mb 17f
10:42 10 13 mph 1013.1mb 17f
10:36 8 11 mph 1013.1mb 17f
10:30 8 14 mph 1013.2mb 17f
10:24 8 16 mph 1013.4mb 17f
10:18 10 15 mph 1013.6mb 17f
10:12 10 14 mph 1013.8mb 17f
10:06 13 17 mph 1013.7mb 17f
10:00 13 16 mph 1013.7mb 17f
9:54 15 21 mph 1013.7mb 17f
9:48 17 22 mph 1013.9mb 17f
9:42 15 22 mph 1014mb 17f
9:36 16 21 mph 1014.1mb 17f
9:30 16 20 mph 1014.1mb 17f
9:24 15 18 mph 1014mb 17f
9:18 13 21 mph 1014mb 18f
9:12 15 21 mph 1014.2mb 18f
9:06 16 18 mph 1014.3mb 18f
9:00 13 18 mph 1014.4mb 18f
8:54 14 17 mph 1014.5mb 18f
8:48 14 16 mph 1014.7mb 18f
8:42 13 16 mph 1014.8mb 18f
8:36 14 17 mph 1014.9mb 17f
8:30 9 13 mph 1015mb 17f
8:24 8 14 mph 1015mb 17f
8:18 9 14 mph 1015mb 17f
8:12 11 17 mph 1014.9mb 17f
8:06 13 14 mph 1014.9mb 17f
8:00 9 11 mph 1014.9mb 17f
7:54 7 10 mph 1015.2mb 16f
7:48 7 10 mph 1015.3mb 16f
7:42 8 10 mph 1015.3mb 16f
7:36 8 10 mph 1015.5mb 16f
7:30 8 10 mph 1015.5mb 16f
7:24 5 7 mph 1015.4mb 15f
7:18 5 6 mph 1015.5mb 15f
7:12 3 6 mph 1015.6mb 15f
7:06 3 5 mph 1015.6mb 15f
7:00 2 3 mph 1015.7mb 14f
6:54 1 3 mph 1015.7mb 14f
6:48 1 3 mph 1015.8mb 14f
6:42 2 5 mph 1015.9mb 14f
6:36 2 3 mph 1015.9mb 14f
6:30 3 5 mph 1016.1mb 14f
6:24 2 3 mph 1016.2mb 14f
6:18 2 5 mph 1016.3mb 15f
6:12 2 6 mph 1016.6mb 15f
6:06 3 6 mph 1016.7mb 15f
6:00 6 7 mph 1016.7mb 15f
5:54 5 7 mph 1016.7mb 15f
5:48 5 8 mph 1016.8mb 15f
5:42 6 11 mph 1016.8mb 16f
5:36 9 13 mph 1016.9mb 16f
5:30 10 14 mph 1017mb 16f
5:24 11 14 mph 1017.1mb 17f
5:18 9 14 mph 1017.2mb 16f
5:12 9 13 mph 1017.3mb 16f
5:06 10 13 mph 1017.3mb 16f
5:00 11 16 mph 1017.4mb 16f
4:54 11 16 mph 1017.5mb 16f
4:48 13 16 mph 1017.5mb 16f
4:42 13 16 mph 1017.6mb 16f
4:36 15 17 mph 1017.7mb 17f
4:30 14 17 mph 1017.8mb 16f
4:24 15 18 mph 1017.8mb 17f
4:18 16 18 mph 1017.9mb 17f
4:12 17 20 mph 1018mb 17f
4:06 13 15 mph 1018mb 16f
4:00 10 14 mph 1018.2mb 16f
3:54 11 16 mph 1018.2mb 15f
3:48 14 15 mph 1018.2mb 15f
3:42 14 17 mph 1018.3mb 16f
3:36 11 18 mph 1018.4mb 15f
3:30 15 18 mph 1018.6mb 15f
3:24 13 18 mph 1018.8mb 15f
3:18 15 17 mph 1018.8mb 15f
3:12 13 16 mph 1018.9mb 15f
3:06 15 18 mph 1019.1mb 14f
3:00 13 16 mph 1019.2mb 14f
2:54 14 17 mph 1019.4mb 14f
2:48 14 18 mph 1019.5mb 14f
2:42 15 17 mph 1019.6mb 14f
2:36 15 17 mph 1019.7mb 13f
2:30 16 18 mph 1019.8mb 13f
2:24 16 20 mph 1019.9mb 14f
2:18 15 18 mph 1020.1mb 13f
2:12 15 18 mph 1020.2mb 14f
2:06 15 21 mph 1020.3mb 13f
2:00 15 18 mph 1020.4mb 13f
1:54 14 18 mph 1020.5mb 13f
1:48 16 21 mph 1020.3mb 14f
1:42 15 18 mph 1020.5mb 14f
1:36 14 18 mph 1020.7mb 14f
1:30 15 17 mph 1020.8mb 13f
1:24 14 16 mph 1020.7mb 14f
1:18 10 14 mph 1020.9mb 14f
1:12 14 16 mph 1021mb 13f
1:06 8 13 mph 1021.2mb 13f
1:00 9 11 mph 1021.2mb 13f
12:54 8 13 mph 1021.4mb 13f
12:48 10 13 mph 1021.6mb 13f
12:42 9 13 mph 1021.8mb 13f
12:36 8 11 mph 1022mb 12f
12:30 7 9 mph 1022.2mb 12f
12:24 8 14 mph 1022.3mb 12f
12:18 8 13 mph 1022.4mb 12f
12:12 9 11 mph 1022.5mb 11f
12:06 6 9 mph 1022.6mb 12f
12:00 3 8 mph 1022.9mb 12f
11:54 6 8 mph 1023mb 11f
11:48 5 6 mph 1023.1mb 11f
11:42 3 6 mph 1023.2mb 11f
11:36 7 8 mph 1023.2mb 10f
11:30 5 8 mph 1023.4mb 10f
11:24 6 9 mph 1023.5mb 10f
11:18 7 8 mph 1023.7mb 9f
11:12 3 8 mph 1023.8mb 10f
11:06 7 8 mph 1023.9mb 9f
11:00 5 9 mph 1023.9mb 9f
10:54 2 8 mph 1024mb 8f
10:48 5 7 mph 1024mb 8f
10:42 2 7 mph 1024mb 8f
10:36 6 8 mph 1023.9mb 7f
10:30 5 8 mph 1024mb 7f
10:24 6 9 mph 1024mb 6f
10:18 7 10 mph 1024mb 6f
10:12 6 9 mph 1024mb 6f
10:06 6 8 mph 1024.1mb 6f
10:00 3 6 mph 1023.9mb 5f
9:54 5 7 mph 1023.9mb 6f
9:48 3 6 mph 1024mb 6f
9:42 5 7 mph 1024.1mb 5f
9:36 5 7 mph 1024.1mb 5f
9:30 6 8 mph 1024.1mb 4f
9:24 6 9 mph 1024.1mb 4f
9:18 5 7 mph 1024.1mb 4f
9:12 5 7 mph 1024mb 3f
9:06 5 7 mph 1024.1mb 3f
9:00 5 7 mph 1024.2mb 2f
8:54 2 7 mph 1024.2mb 2f
8:48 5 8 mph 1024.3mb 2f
8:42 7 9 mph 1024.2mb 1f
8:36 6 11 mph 1024.2mb 1f
8:30 8 11 mph 1024.3mb 1f
8:24 7 11 mph 1024.5mb 1f
8:18 7 10 mph 1024.4mb -
8:12 6 9 mph 1024.4mb -
8:06 3 6 mph 1024.4mb -
8:00 3 6 mph 1024.4mb -